sensor_id;sensor_type;location;lat;lon;timestamp;P1;durP1;ratioP1;P2;durP2;ratioP2
29162;SDS011;20331;53.144;8.208;2022-08-21T00:09:50;7.03;;;2.53;;
29162;SDS011;20331;53.144;8.208;2022-08-21T00:20:13;12.27;;;2.40;;
29162;SDS011;20331;53.144;8.208;2022-08-21T00:30:36;5.30;;;2.30;;
29162;SDS011;20331;53.144;8.208;2022-08-21T00:40:59;12.32;;;3.15;;
29162;SDS011;20331;53.144;8.208;2022-08-21T00:51:49;6.45;;;2.70;;
29162;SDS011;20331;53.144;8.208;2022-08-21T01:02:15;7.88;;;2.50;;
29162;SDS011;20331;53.144;8.208;2022-08-21T01:12:37;7.50;;;2.63;;
29162;SDS011;20331;53.144;8.208;2022-08-21T01:23:02;11.13;;;2.63;;
29162;SDS011;20331;53.144;8.208;2022-08-21T01:33:25;5.47;;;2.40;;
29162;SDS011;20331;53.144;8.208;2022-08-21T01:43:47;4.47;;;2.30;;
29162;SDS011;20331;53.144;8.208;2022-08-21T01:54:08;7.28;;;2.40;;
29162;SDS011;20331;53.144;8.208;2022-08-21T02:04:31;6.53;;;2.30;;
29162;SDS011;20331;53.144;8.208;2022-08-21T02:14:53;5.25;;;2.20;;
29162;SDS011;20331;53.144;8.208;2022-08-21T02:25:15;8.15;;;2.20;;
29162;SDS011;20331;53.144;8.208;2022-08-21T02:35:40;2.80;;;1.90;;
29162;SDS011;20331;53.144;8.208;2022-08-21T02:46:03;5.97;;;2.20;;
29162;SDS011;20331;53.144;8.208;2022-08-21T02:56:26;4.75;;;1.90;;
29162;SDS011;20331;53.144;8.208;2022-08-21T03:06:51;10.10;;;2.17;;
29162;SDS011;20331;53.144;8.208;2022-08-21T03:17:13;5.25;;;1.98;;
29162;SDS011;20331;53.144;8.208;2022-08-21T03:27:34;6.18;;;2.30;;
29162;SDS011;20331;53.144;8.208;2022-08-21T03:37:59;6.00;;;2.30;;
29162;SDS011;20331;53.144;8.208;2022-08-21T03:48:21;7.72;;;3.03;;
29162;SDS011;20331;53.144;8.208;2022-08-21T03:58:43;10.73;;;3.00;;
29162;SDS011;20331;53.144;8.208;2022-08-21T04:09:05;7.20;;;2.83;;
29162;SDS011;20331;53.144;8.208;2022-08-21T04:19:26;9.43;;;3.60;;
29162;SDS011;20331;53.144;8.208;2022-08-21T04:29:50;8.35;;;3.60;;
29162;SDS011;20331;53.144;8.208;2022-08-21T04:40:12;9.50;;;3.90;;
29162;SDS011;20331;53.144;8.208;2022-08-21T05:01:00;11.13;;;4.30;;
29162;SDS011;20331;53.144;8.208;2022-08-21T05:11:22;10.68;;;4.38;;
29162;SDS011;20331;53.144;8.208;2022-08-21T05:21:45;9.85;;;4.45;;
29162;SDS011;20331;53.144;8.208;2022-08-21T05:32:09;10.57;;;5.28;;
29162;SDS011;20331;53.144;8.208;2022-08-21T05:42:31;9.00;;;5.10;;
29162;SDS011;20331;53.144;8.208;2022-08-21T05:52:53;8.85;;;4.82;;
29162;SDS011;20331;53.144;8.208;2022-08-21T06:03:28;10.57;;;4.80;;
29162;SDS011;20331;53.144;8.208;2022-08-21T06:13:52;13.25;;;5.32;;
29162;SDS011;20331;53.144;8.208;2022-08-21T06:24:13;11.35;;;5.47;;
29162;SDS011;20331;53.144;8.208;2022-08-21T06:34:35;13.55;;;4.97;;
29162;SDS011;20331;53.144;8.208;2022-08-21T06:44:59;11.10;;;4.45;;
29162;SDS011;20331;53.144;8.208;2022-08-21T06:55:20;9.45;;;4.60;;
29162;SDS011;20331;53.144;8.208;2022-08-21T07:05:46;7.68;;;3.80;;
29162;SDS011;20331;53.144;8.208;2022-08-21T07:16:08;8.32;;;3.35;;
29162;SDS011;20331;53.144;8.208;2022-08-21T07:26:29;11.18;;;3.58;;
29162;SDS011;20331;53.144;8.208;2022-08-21T07:36:51;8.45;;;3.55;;
29162;SDS011;20331;53.144;8.208;2022-08-21T07:47:13;6.15;;;2.53;;
29162;SDS011;20331;53.144;8.208;2022-08-21T07:57:34;11.55;;;3.13;;
29162;SDS011;20331;53.144;8.208;2022-08-21T08:07:56;8.65;;;2.40;;
29162;SDS011;20331;53.144;8.208;2022-08-21T08:18:18;9.63;;;2.90;;
29162;SDS011;20331;53.144;8.208;2022-08-21T08:28:39;7.57;;;2.75;;
29162;SDS011;20331;53.144;8.208;2022-08-21T08:39:02;14.68;;;2.65;;
29162;SDS011;20331;53.144;8.208;2022-08-21T08:49:30;7.07;;;2.70;;
29162;SDS011;20331;53.144;8.208;2022-08-21T09:00:00;8.90;;;2.70;;
29162;SDS011;20331;53.144;8.208;2022-08-21T09:10:38;9.82;;;2.70;;
29162;SDS011;20331;53.144;8.208;2022-08-21T09:21:28;9.55;;;2.10;;
29162;SDS011;20331;53.144;8.208;2022-08-21T09:31:53;7.60;;;1.90;;
29162;SDS011;20331;53.144;8.208;2022-08-21T09:42:21;7.80;;;2.10;;
29162;SDS011;20331;53.144;8.208;2022-08-21T09:52:45;7.47;;;2.10;;
29162;SDS011;20331;53.144;8.208;2022-08-21T10:03:20;10.27;;;1.30;;
29162;SDS011;20331;53.144;8.208;2022-08-21T10:13:54;4.45;;;1.50;;
29162;SDS011;20331;53.144;8.208;2022-08-21T11:06:25;3.63;;;1.48;;
29162;SDS011;20331;53.144;8.208;2022-08-21T11:27:56;4.38;;;1.33;;
29162;SDS011;20331;53.144;8.208;2022-08-21T11:38:45;8.40;;;1.70;;
29162;SDS011;20331;53.144;8.208;2022-08-21T11:49:13;6.07;;;1.20;;
29162;SDS011;20331;53.144;8.208;2022-08-21T12:10:58;3.75;;;1.20;;
29162;SDS011;20331;53.144;8.208;2022-08-21T12:21:27;8.07;;;1.33;;
29162;SDS011;20331;53.144;8.208;2022-08-21T12:31:54;7.03;;;1.30;;
29162;SDS011;20331;53.144;8.208;2022-08-21T12:42:43;4.85;;;1.10;;
29162;SDS011;20331;53.144;8.208;2022-08-21T13:03:46;6.53;;;1.35;;
29162;SDS011;20331;53.144;8.208;2022-08-21T13:14:35;4.17;;;1.17;;
29162;SDS011;20331;53.144;8.208;2022-08-21T13:25:09;4.45;;;1.00;;
29162;SDS011;20331;53.144;8.208;2022-08-21T13:35:46;3.20;;;0.98;;
29162;SDS011;20331;53.144;8.208;2022-08-21T13:46:09;2.67;;;1.13;;
29162;SDS011;20331;53.144;8.208;2022-08-21T13:56:44;2.25;;;1.00;;
29162;SDS011;20331;53.144;8.208;2022-08-21T14:07:15;2.78;;;1.10;;
29162;SDS011;20331;53.144;8.208;2022-08-21T14:17:43;2.55;;;0.80;;
29162;SDS011;20331;53.144;8.208;2022-08-21T14:28:18;2.47;;;0.77;;
29162;SDS011;20331;53.144;8.208;2022-08-21T14:38:48;2.33;;;1.02;;
29162;SDS011;20331;53.144;8.208;2022-08-21T14:49:10;4.10;;;1.08;;
29162;SDS011;20331;53.144;8.208;2022-08-21T14:59:32;2.17;;;1.00;;
29162;SDS011;20331;53.144;8.208;2022-08-21T15:09:55;9.00;;;0.80;;
29162;SDS011;20331;53.144;8.208;2022-08-21T15:20:17;4.43;;;1.00;;
29162;SDS011;20331;53.144;8.208;2022-08-21T15:30:39;4.18;;;0.93;;
29162;SDS011;20331;53.144;8.208;2022-08-21T15:41:03;3.58;;;0.95;;
29162;SDS011;20331;53.144;8.208;2022-08-21T15:51:25;1.45;;;0.85;;
29162;SDS011;20331;53.144;8.208;2022-08-21T16:01:50;2.42;;;1.10;;
29162;SDS011;20331;53.144;8.208;2022-08-21T16:12:16;3.05;;;1.20;;
29162;SDS011;20331;53.144;8.208;2022-08-21T16:22:43;5.60;;;1.20;;
29162;SDS011;20331;53.144;8.208;2022-08-21T16:33:05;6.47;;;1.25;;
29162;SDS011;20331;53.144;8.208;2022-08-21T16:43:29;7.38;;;1.50;;
29162;SDS011;20331;53.144;8.208;2022-08-21T16:53:52;3.75;;;1.52;;
29162;SDS011;20331;53.144;8.208;2022-08-21T17:04:14;5.28;;;1.70;;
29162;SDS011;20331;53.144;8.208;2022-08-21T17:14:36;6.40;;;1.75;;
29162;SDS011;20331;53.144;8.208;2022-08-21T17:24:58;9.65;;;1.60;;
29162;SDS011;20331;53.144;8.208;2022-08-21T17:35:20;8.35;;;1.40;;
29162;SDS011;20331;53.144;8.208;2022-08-21T17:45:42;4.55;;;1.23;;
29162;SDS011;20331;53.144;8.208;2022-08-21T17:56:05;3.35;;;1.15;;
29162;SDS011;20331;53.144;8.208;2022-08-21T18:06:27;10.57;;;1.73;;
29162;SDS011;20331;53.144;8.208;2022-08-21T18:16:49;5.60;;;1.67;;
29162;SDS011;20331;53.144;8.208;2022-08-21T18:27:11;7.95;;;1.77;;
29162;SDS011;20331;53.144;8.208;2022-08-21T18:37:35;4.50;;;1.60;;
29162;SDS011;20331;53.144;8.208;2022-08-21T18:47:57;6.15;;;1.90;;
29162;SDS011;20331;53.144;8.208;2022-08-21T18:58:19;5.20;;;1.73;;
29162;SDS011;20331;53.144;8.208;2022-08-21T19:08:40;8.48;;;1.90;;
29162;SDS011;20331;53.144;8.208;2022-08-21T19:19:02;8.85;;;1.63;;
29162;SDS011;20331;53.144;8.208;2022-08-21T19:29:25;8.68;;;1.80;;
29162;SDS011;20331;53.144;8.208;2022-08-21T19:40:07;11.25;;;2.10;;
29162;SDS011;20331;53.144;8.208;2022-08-21T19:50:29;5.68;;;1.88;;
29162;SDS011;20331;53.144;8.208;2022-08-21T20:00:51;11.45;;;2.10;;
29162;SDS011;20331;53.144;8.208;2022-08-21T20:11:14;7.05;;;1.90;;
29162;SDS011;20331;53.144;8.208;2022-08-21T20:21:51;10.80;;;1.90;;
29162;SDS011;20331;53.144;8.208;2022-08-21T20:32:16;7.03;;;1.70;;
29162;SDS011;20331;53.144;8.208;2022-08-21T20:42:39;5.65;;;1.52;;
29162;SDS011;20331;53.144;8.208;2022-08-21T20:53:07;5.85;;;1.63;;
29162;SDS011;20331;53.144;8.208;2022-08-21T21:03:36;10.55;;;2.10;;
29162;SDS011;20331;53.144;8.208;2022-08-21T21:14:04;8.45;;;1.80;;
29162;SDS011;20331;53.144;8.208;2022-08-21T21:35:19;7.18;;;1.77;;
29162;SDS011;20331;53.144;8.208;2022-08-21T21:56:45;15.73;;;2.50;;
29162;SDS011;20331;53.144;8.208;2022-08-21T22:07:20;9.40;;;1.80;;
29162;SDS011;20331;53.144;8.208;2022-08-21T22:18:02;9.73;;;1.90;;
29162;SDS011;20331;53.144;8.208;2022-08-21T22:28:30;9.18;;;1.73;;
29162;SDS011;20331;53.144;8.208;2022-08-21T22:38:55;12.35;;;2.13;;
29162;SDS011;20331;53.144;8.208;2022-08-21T22:49:37;10.52;;;2.03;;
29162;SDS011;20331;53.144;8.208;2022-08-21T23:00:09;11.85;;;2.13;;
29162;SDS011;20331;53.144;8.208;2022-08-21T23:10:37;9.25;;;2.00;;
29162;SDS011;20331;53.144;8.208;2022-08-21T23:21:15;13.45;;;2.20;;
